createdAt,value
2023-02-21T00:00:59.322Z,5.70
2023-02-21T00:03:44.852Z,5.90
2023-02-21T00:06:30.770Z,5.73
2023-02-21T00:09:17.661Z,6.57
2023-02-21T00:12:03.371Z,6.20
2023-02-21T00:14:48.688Z,6.40
2023-02-21T00:17:34.662Z,4.63
2023-02-21T00:20:20.526Z,4.60
2023-02-21T00:23:05.784Z,4.60
2023-02-21T00:25:52.613Z,5.00
2023-02-21T00:28:38.083Z,6.23
2023-02-21T00:31:24.056Z,4.73
2023-02-21T00:34:09.520Z,4.73
2023-02-21T00:36:55.198Z,12.80
2023-02-21T00:39:40.608Z,4.60
2023-02-21T00:42:28.149Z,4.33
2023-02-21T00:45:13.682Z,5.80
2023-02-21T00:47:59.381Z,3.30
2023-02-21T00:50:44.792Z,5.17
2023-02-21T00:53:30.688Z,6.37
2023-02-21T00:56:16.108Z,3.00
2023-02-21T00:59:02.733Z,3.23
2023-02-21T01:01:48.586Z,5.20
2023-02-21T01:04:34.030Z,3.83
2023-02-21T01:07:19.410Z,6.00
2023-02-21T01:10:04.819Z,4.90
2023-02-21T01:12:50.217Z,4.60
2023-02-21T01:15:37.253Z,3.90
2023-02-21T01:18:23.707Z,6.87
2023-02-21T01:21:09.136Z,7.17
2023-02-21T01:23:54.733Z,3.60
2023-02-21T01:26:39.965Z,2.70
2023-02-21T01:29:25.587Z,3.00
2023-02-21T01:32:12.412Z,3.20
2023-02-21T01:34:57.860Z,2.60
2023-02-21T01:37:43.751Z,3.07
2023-02-21T01:40:33.110Z,4.30
2023-02-21T01:43:18.425Z,3.37
2023-02-21T01:46:08.461Z,3.30
2023-02-21T01:48:56.144Z,3.40
2023-02-21T01:51:45.843Z,2.87
2023-02-21T01:54:32.691Z,4.30
2023-02-21T01:57:21.073Z,3.87
2023-02-21T02:00:07.934Z,3.23
2023-02-21T02:02:59.790Z,4.53
2023-02-21T02:05:47.755Z,4.50
2023-02-21T02:08:36.476Z,3.40
2023-02-21T02:11:29.445Z,4.43
2023-02-21T02:14:10.636Z,5.13
2023-02-21T02:16:46.054Z,3.43
2023-02-21T02:19:40.591Z,3.60
2023-02-21T02:22:39.747Z,4.20
2023-02-21T02:25:26.025Z,3.20
2023-02-21T02:28:17.159Z,4.53
2023-02-21T02:31:03.181Z,2.97
2023-02-21T02:34:05.467Z,3.97
2023-02-21T02:36:40.798Z,3.40
2023-02-21T02:39:20.104Z,3.13
2023-02-21T02:41:56.430Z,3.87
2023-02-21T02:44:30.800Z,4.27
2023-02-21T02:47:02.767Z,3.33
2023-02-21T02:49:35.394Z,3.93
2023-02-21T02:52:07.390Z,3.30
2023-02-21T02:54:35.588Z,4.43
2023-02-21T02:57:10.445Z,3.90
2023-02-21T02:59:40.494Z,3.73
2023-02-21T03:02:38.041Z,4.73
2023-02-21T03:05:34.552Z,4.10
2023-02-21T03:08:10.393Z,3.77
2023-02-21T03:10:46.942Z,3.23
2023-02-21T03:13:36.000Z,4.13
2023-02-21T03:16:11.097Z,3.63
2023-02-21T03:18:44.611Z,3.20
2023-02-21T03:21:17.822Z,5.33
2023-02-21T03:23:50.092Z,4.50
2023-02-21T03:26:19.314Z,4.03
2023-02-21T03:28:48.765Z,5.43
2023-02-21T03:31:20.647Z,3.10
2023-02-21T03:33:48.643Z,4.67
2023-02-21T03:36:17.151Z,3.07
2023-02-21T03:38:45.118Z,4.97
2023-02-21T03:41:16.732Z,3.77
2023-02-21T03:43:44.903Z,4.37
2023-02-21T03:46:13.174Z,5.60
2023-02-21T03:48:47.252Z,7.40
2023-02-21T03:51:18.407Z,4.00
2023-02-21T03:53:49.670Z,4.67
2023-02-21T03:56:19.300Z,5.20
2023-02-21T03:58:51.904Z,5.27
2023-02-21T04:01:20.262Z,5.80
2023-02-21T04:03:48.504Z,4.60
2023-02-21T04:06:16.694Z,6.23
2023-02-21T04:08:44.973Z,5.13
2023-02-21T04:11:13.853Z,5.43
2023-02-21T04:13:43.711Z,4.83
2023-02-21T04:16:11.961Z,6.33
2023-02-21T04:18:40.216Z,5.40
2023-02-21T04:21:10.085Z,5.63
2023-02-21T04:23:38.335Z,6.20
2023-02-21T04:26:07.920Z,7.10
2023-02-21T04:28:37.764Z,4.50
2023-02-21T04:31:07.973Z,4.07
2023-02-21T04:33:44.680Z,5.07
2023-02-21T04:36:13.219Z,4.73
2023-02-21T04:38:48.264Z,6.40
2023-02-21T04:41:19.489Z,6.40
2023-02-21T04:43:49.049Z,6.93
2023-02-21T04:46:19.933Z,5.63
2023-02-21T04:48:50.839Z,14.27
2023-02-21T04:51:21.185Z,7.03
2023-02-21T04:53:50.653Z,8.20
2023-02-21T04:56:20.973Z,9.17
2023-02-21T04:58:49.800Z,12.07
2023-02-21T05:01:20.860Z,7.10
2023-02-21T05:03:49.029Z,13.30
2023-02-21T05:06:21.474Z,6.70
2023-02-21T05:08:50.537Z,7.80
2023-02-21T05:11:19.908Z,6.60
2023-02-21T05:13:48.310Z,8.83
2023-02-21T05:16:16.910Z,9.23
2023-02-21T05:18:48.160Z,8.20
2023-02-21T05:21:17.633Z,6.03
2023-02-21T05:23:55.608Z,7.47
2023-02-21T05:26:26.056Z,8.27
2023-02-21T05:28:54.769Z,6.70
2023-02-21T05:31:23.047Z,9.73
2023-02-21T05:33:52.491Z,6.60
2023-02-21T05:36:20.584Z,7.17
2023-02-21T05:38:50.526Z,7.20
2023-02-21T05:41:19.581Z,5.83
2023-02-21T05:43:49.640Z,8.00
2023-02-21T05:46:24.595Z,8.60
2023-02-21T05:48:54.694Z,7.20
2023-02-21T05:51:22.759Z,6.67
2023-02-21T05:53:52.742Z,6.10
2023-02-21T05:56:22.174Z,10.83
2023-02-21T05:58:50.235Z,7.63
2023-02-21T06:01:18.545Z,5.60
2023-02-21T06:03:46.778Z,12.03
2023-02-21T06:06:17.494Z,5.87
2023-02-21T06:08:47.539Z,8.00
2023-02-21T06:11:17.005Z,6.90
2023-02-21T06:13:45.329Z,6.33
2023-02-21T06:16:13.565Z,7.70
2023-02-21T06:18:41.640Z,8.80
2023-02-21T06:21:09.639Z,8.37
2023-02-21T06:23:39.055Z,9.23
2023-02-21T06:26:07.126Z,7.60
2023-02-21T06:28:35.473Z,7.90
2023-02-21T06:31:05.063Z,6.23
2023-02-21T06:33:33.489Z,8.23
2023-02-21T06:36:05.631Z,7.80
2023-02-21T06:38:34.023Z,7.30
2023-02-21T06:41:06.821Z,8.17
2023-02-21T06:43:36.369Z,7.00
2023-02-21T06:46:04.950Z,8.70
2023-02-21T06:48:33.059Z,12.40
2023-02-21T06:51:01.072Z,8.70
2023-02-21T06:53:29.039Z,7.70
2023-02-21T06:55:56.993Z,6.83
2023-02-21T06:58:26.385Z,7.90
2023-02-21T07:00:54.341Z,7.13
2023-02-21T07:03:22.417Z,9.37
2023-02-21T07:05:50.419Z,10.00
2023-02-21T07:08:18.457Z,8.67
2023-02-21T07:10:46.559Z,7.60
2023-02-21T07:13:14.611Z,4.90
2023-02-21T07:15:43.979Z,9.93
2023-02-21T07:18:12.021Z,7.70
2023-02-21T07:20:39.998Z,6.73
2023-02-21T07:23:07.963Z,6.20
2023-02-21T07:25:35.998Z,5.63
2023-02-21T07:28:04.368Z,6.80
2023-02-21T07:30:32.694Z,8.50
2023-02-21T07:33:02.058Z,7.00
2023-02-21T07:35:30.038Z,5.03
2023-02-21T07:37:58.002Z,7.20
2023-02-21T07:40:26.002Z,7.47
2023-02-21T07:42:54.031Z,7.23
2023-02-21T07:45:22.022Z,7.20
2023-02-21T07:47:51.080Z,7.50
2023-02-21T07:50:23.638Z,7.50
2023-02-21T07:52:51.765Z,9.80
2023-02-21T07:55:19.854Z,6.37
2023-02-21T07:57:47.816Z,7.43
2023-02-21T08:00:16.286Z,5.93
2023-02-21T08:02:50.922Z,7.07
2023-02-21T08:05:21.469Z,6.00
2023-02-21T08:07:49.745Z,9.67
2023-02-21T08:10:23.745Z,6.83
2023-02-21T08:12:51.911Z,8.70
2023-02-21T08:15:20.082Z,10.83
2023-02-21T08:17:50.047Z,9.30
2023-02-21T08:20:18.148Z,9.20
2023-02-21T08:22:47.604Z,13.63
2023-02-21T08:25:17.120Z,12.60
2023-02-21T08:27:46.614Z,11.20
2023-02-21T08:30:17.619Z,8.87
2023-02-21T08:32:47.565Z,12.47
2023-02-21T08:35:16.923Z,18.03
2023-02-21T08:37:47.680Z,7.37
2023-02-21T08:40:16.953Z,14.03
2023-02-21T08:42:44.914Z,11.30
2023-02-21T08:45:17.412Z,8.30
2023-02-21T08:47:45.516Z,9.47
2023-02-21T08:50:14.018Z,7.33
2023-02-21T08:52:42.034Z,10.33
2023-02-21T08:55:11.600Z,6.87
2023-02-21T08:57:39.741Z,6.00
2023-02-21T09:00:10.556Z,7.50
2023-02-21T09:02:40.245Z,7.43
2023-02-21T09:05:09.732Z,9.00
2023-02-21T09:07:37.713Z,8.80
2023-02-21T09:10:07.354Z,8.47
2023-02-21T09:12:36.748Z,8.63
2023-02-21T09:15:05.621Z,9.70
2023-02-21T09:17:36.680Z,6.40
2023-02-21T09:20:07.578Z,5.37
2023-02-21T09:22:36.020Z,4.70
2023-02-21T09:25:05.010Z,8.07
2023-02-21T09:27:38.855Z,7.00
2023-02-21T09:30:10.580Z,9.53
2023-02-21T09:32:39.854Z,5.83
2023-02-21T09:35:08.880Z,9.80
2023-02-21T09:37:39.359Z,11.57
2023-02-21T09:40:15.080Z,5.87
2023-02-21T09:42:44.356Z,6.60
2023-02-21T09:45:19.809Z,6.47
2023-02-21T09:47:52.249Z,6.50
2023-02-21T09:50:27.677Z,5.50
2023-02-21T09:52:57.938Z,6.53
2023-02-21T09:55:36.240Z,6.80
2023-02-21T09:58:04.507Z,5.07
2023-02-21T10:00:38.294Z,5.13
2023-02-21T10:03:22.821Z,4.57
2023-02-21T10:05:59.208Z,5.43
2023-02-21T10:08:38.161Z,4.83
2023-02-21T10:11:21.862Z,6.17
2023-02-21T10:13:57.682Z,6.27
2023-02-21T10:16:31.753Z,4.47
2023-02-21T10:19:08.353Z,7.40
2023-02-21T10:21:39.292Z,9.07
2023-02-21T10:24:14.055Z,5.57
2023-02-21T10:26:48.521Z,7.83
2023-02-21T10:29:23.107Z,4.77
2023-02-21T10:31:56.374Z,3.43
2023-02-21T10:34:27.740Z,5.70
2023-02-21T10:36:58.321Z,5.43
2023-02-21T10:39:33.836Z,6.73
2023-02-21T10:42:02.153Z,5.30
2023-02-21T10:44:33.373Z,4.63
2023-02-21T10:47:09.513Z,4.00
2023-02-21T10:49:45.167Z,4.90
2023-02-21T10:52:16.929Z,6.50
2023-02-21T10:55:01.923Z,9.27
2023-02-21T10:57:35.266Z,7.03
2023-02-21T11:00:10.070Z,6.13
2023-02-21T11:02:42.186Z,6.17
2023-02-21T11:05:14.549Z,6.60
2023-02-21T11:07:43.883Z,7.70
2023-02-21T11:10:29.792Z,5.77
2023-02-21T11:13:17.094Z,5.07
2023-02-21T11:15:46.182Z,5.17
2023-02-21T11:18:19.217Z,6.97
2023-02-21T11:20:48.325Z,4.80
2023-02-21T11:23:28.957Z,6.93
2023-02-21T11:26:01.853Z,6.00
2023-02-21T11:28:29.995Z,11.37
2023-02-21T11:31:14.546Z,6.77
2023-02-21T11:33:52.791Z,7.23
2023-02-21T11:36:26.684Z,6.13
2023-02-21T11:39:04.478Z,7.90
2023-02-21T11:41:37.961Z,7.73
2023-02-21T11:44:24.420Z,3.83
2023-02-21T11:47:02.627Z,6.63
2023-02-21T11:49:39.887Z,5.60
2023-02-21T11:52:12.211Z,6.10
2023-02-21T11:54:40.996Z,5.40
2023-02-21T11:57:16.954Z,7.40
2023-02-21T11:59:51.703Z,4.53
2023-02-21T12:02:52.475Z,6.67
2023-02-21T12:05:35.984Z,4.40
2023-02-21T12:08:24.285Z,4.67
2023-02-21T12:11:01.580Z,7.40
2023-02-21T12:13:38.060Z,3.83
2023-02-21T12:16:20.295Z,5.60
2023-02-21T12:19:01.958Z,5.00
2023-02-21T12:21:47.331Z,3.07
2023-02-21T12:24:29.051Z,5.30
2023-02-21T12:27:01.336Z,3.90
2023-02-21T12:29:48.810Z,2.83
2023-02-21T12:32:42.939Z,3.63
2023-02-21T12:35:49.126Z,2.77
2023-02-21T12:38:30.405Z,3.50
2023-02-21T12:41:05.905Z,3.53
2023-02-21T12:43:49.716Z,3.63
2023-02-21T12:46:29.881Z,4.57
2023-02-21T12:49:07.398Z,3.70
2023-02-21T12:51:40.358Z,2.30
2023-02-21T12:54:16.026Z,5.40
2023-02-21T12:56:50.953Z,7.03
2023-02-21T12:59:24.385Z,2.70
2023-02-21T13:01:57.432Z,3.00
2023-02-21T13:04:35.713Z,2.60
2023-02-21T13:07:11.125Z,4.07
2023-02-21T13:09:46.446Z,3.63
2023-02-21T13:12:17.912Z,5.93
2023-02-21T13:14:52.149Z,2.77
2023-02-21T13:17:20.952Z,3.43
2023-02-21T13:19:54.365Z,4.73
2023-02-21T13:22:59.107Z,4.23
2023-02-21T13:25:38.030Z,3.50
2023-02-21T13:28:13.900Z,3.83
2023-02-21T13:30:47.727Z,3.70
2023-02-21T13:33:29.022Z,4.27
2023-02-21T13:36:00.642Z,2.50
2023-02-21T13:38:32.012Z,2.77
2023-02-21T13:41:10.953Z,3.53
2023-02-21T13:43:48.268Z,3.10
2023-02-21T13:47:00.072Z,3.50
2023-02-21T13:49:52.016Z,2.87
2023-02-21T13:52:53.010Z,3.10
2023-02-21T13:55:32.505Z,4.47
2023-02-21T13:58:36.271Z,3.47
2023-02-21T14:01:46.159Z,3.60
2023-02-21T14:05:00.742Z,3.57
2023-02-21T14:07:46.585Z,4.87
2023-02-21T14:10:46.819Z,3.20
2023-02-21T14:13:25.860Z,4.50
2023-02-21T14:16:09.146Z,2.03
2023-02-21T14:18:44.716Z,1.90
2023-02-21T14:21:17.268Z,4.40
2023-02-21T14:23:51.453Z,2.53
2023-02-21T14:26:43.784Z,2.13
2023-02-21T14:29:30.686Z,2.80
2023-02-21T14:32:29.059Z,3.90
2023-02-21T14:34:59.871Z,5.63
2023-02-21T14:37:36.458Z,2.73
2023-02-21T14:40:22.041Z,2.90
2023-02-21T14:43:02.566Z,3.10
2023-02-21T14:46:00.763Z,4.97
2023-02-21T14:48:58.228Z,4.37
2023-02-21T14:52:02.599Z,3.87
2023-02-21T14:55:09.725Z,5.23
2023-02-21T14:58:16.289Z,3.53
2023-02-21T15:01:00.407Z,4.23
2023-02-21T15:03:33.810Z,2.17
2023-02-21T15:06:08.154Z,6.43
2023-02-21T15:08:44.716Z,4.10
2023-02-21T15:11:22.215Z,2.93
2023-02-21T15:14:14.800Z,3.13
2023-02-21T15:16:52.190Z,3.47
2023-02-21T15:19:25.303Z,2.00
2023-02-21T15:22:19.758Z,3.27
2023-02-21T15:25:18.198Z,2.13
2023-02-21T15:28:03.690Z,3.30
2023-02-21T15:30:37.801Z,2.63
2023-02-21T15:33:14.946Z,3.40
2023-02-21T15:35:47.100Z,3.30
2023-02-21T15:38:22.977Z,6.07
2023-02-21T15:40:55.581Z,2.60
2023-02-21T15:43:31.516Z,2.17
2023-02-21T15:46:02.091Z,2.00
2023-02-21T15:48:32.424Z,2.10
2023-02-21T15:51:04.809Z,2.90
2023-02-21T15:53:34.158Z,5.30
2023-02-21T15:56:23.610Z,4.13
2023-02-21T15:59:10.188Z,2.37
2023-02-21T16:01:38.584Z,2.90
2023-02-21T16:04:20.929Z,2.50
2023-02-21T16:06:51.983Z,2.77
2023-02-21T16:09:25.769Z,4.80
2023-02-21T16:11:57.676Z,2.50
2023-02-21T16:14:36.266Z,1.90
2023-02-21T16:17:21.445Z,2.60
2023-02-21T16:19:53.897Z,4.60
2023-02-21T16:22:34.171Z,4.53
2023-02-21T16:25:24.714Z,3.23
2023-02-21T16:27:54.505Z,5.47
2023-02-21T16:30:25.211Z,3.10
2023-02-21T16:32:55.296Z,5.20
2023-02-21T16:35:25.707Z,3.90
2023-02-21T16:37:55.562Z,3.33
2023-02-21T16:40:27.535Z,3.83
2023-02-21T16:42:56.697Z,3.03
2023-02-21T16:45:25.445Z,2.03
2023-02-21T16:47:58.386Z,4.80
2023-02-21T16:50:30.757Z,6.17
2023-02-21T16:52:59.357Z,3.23
2023-02-21T16:55:29.659Z,3.80
2023-02-21T16:58:00.899Z,4.23
2023-02-21T17:00:29.287Z,7.47
2023-02-21T17:02:57.625Z,4.03
2023-02-21T17:05:26.248Z,3.23
2023-02-21T17:07:55.656Z,7.50
2023-02-21T17:10:23.715Z,8.47
2023-02-21T17:12:52.956Z,14.70
2023-02-21T17:15:21.737Z,12.43
2023-02-21T17:17:53.528Z,11.83
2023-02-21T17:20:23.273Z,17.33
2023-02-21T17:22:51.907Z,8.87
2023-02-21T17:25:21.540Z,4.40
2023-02-21T17:27:49.552Z,8.10
2023-02-21T17:30:21.078Z,4.57
2023-02-21T17:32:49.042Z,8.80
2023-02-21T17:35:19.232Z,8.03
2023-02-21T17:37:49.604Z,9.27
2023-02-21T17:40:19.608Z,8.93
2023-02-21T17:42:47.759Z,7.73
2023-02-21T17:45:20.177Z,5.77
2023-02-21T17:47:49.280Z,6.60
2023-02-21T17:50:18.062Z,6.20
2023-02-21T17:52:46.258Z,11.30
2023-02-21T17:55:19.269Z,7.17
2023-02-21T17:57:47.553Z,8.17
2023-02-21T18:00:24.239Z,7.17
2023-02-21T18:02:52.761Z,6.63
2023-02-21T18:05:21.179Z,6.90
2023-02-21T18:07:49.947Z,6.20
2023-02-21T18:10:18.979Z,10.87
2023-02-21T18:12:48.678Z,7.53
2023-02-21T18:15:20.241Z,9.57
2023-02-21T18:17:48.340Z,8.37
2023-02-21T18:20:17.195Z,7.83
2023-02-21T18:22:45.602Z,6.23
2023-02-21T18:25:15.228Z,6.70
2023-02-21T18:27:43.628Z,4.70
2023-02-21T18:30:12.415Z,7.27
2023-02-21T18:32:41.854Z,9.20
2023-02-21T18:35:10.024Z,6.47
2023-02-21T18:37:37.968Z,9.90
2023-02-21T18:40:08.246Z,9.90
2023-02-21T18:42:36.214Z,10.20
2023-02-21T18:45:04.508Z,7.80
2023-02-21T18:47:34.470Z,9.70
2023-02-21T18:50:03.837Z,10.33
2023-02-21T18:52:31.828Z,9.00
2023-02-21T18:55:03.609Z,10.73
2023-02-21T18:57:34.202Z,9.47
2023-02-21T19:00:02.190Z,11.20
2023-02-21T19:02:30.303Z,12.97
2023-02-21T19:04:58.378Z,10.37
2023-02-21T19:07:28.105Z,14.07
2023-02-21T19:09:56.088Z,14.37
2023-02-21T19:12:24.048Z,14.83
2023-02-21T19:14:52.001Z,19.23
2023-02-21T19:17:19.962Z,20.20
2023-02-21T19:19:47.946Z,20.43
2023-02-21T19:22:16.015Z,18.07
2023-02-21T19:24:45.333Z,17.03
2023-02-21T19:27:13.347Z,19.87
2023-02-21T19:29:41.967Z,16.50
2023-02-21T19:32:10.626Z,14.93
2023-02-21T19:34:38.671Z,15.20
2023-02-21T19:37:06.784Z,12.20
2023-02-21T19:39:36.532Z,15.80
2023-02-21T19:42:07.198Z,12.27
2023-02-21T19:44:42.692Z,15.60
2023-02-21T19:47:11.031Z,21.83
2023-02-21T19:49:39.233Z,17.43
2023-02-21T19:52:07.335Z,27.53
2023-02-21T19:54:35.438Z,23.10
2023-02-21T19:57:04.869Z,24.60
2023-02-21T19:59:33.915Z,20.83
2023-02-21T20:02:03.532Z,11.70
2023-02-21T20:04:31.607Z,10.73
2023-02-21T20:06:59.690Z,15.77
2023-02-21T20:09:30.528Z,12.00
2023-02-21T20:12:01.637Z,10.70
2023-02-21T20:14:31.313Z,10.70
2023-02-21T20:16:59.404Z,10.00
2023-02-21T20:19:27.684Z,10.17
2023-02-21T20:21:55.789Z,8.70
2023-02-21T20:24:24.329Z,9.53
2023-02-21T20:26:56.607Z,9.67
2023-02-21T20:29:25.732Z,9.60
2023-02-21T20:32:08.124Z,8.90
2023-02-21T20:34:41.696Z,7.70
2023-02-21T20:37:11.084Z,7.70
2023-02-21T20:39:41.622Z,12.70
2023-02-21T20:42:12.626Z,10.00
2023-02-21T20:44:43.237Z,10.63
2023-02-21T20:47:13.523Z,9.00
2023-02-21T20:49:47.049Z,9.17
2023-02-21T20:52:15.758Z,10.90
2023-02-21T20:54:45.330Z,10.13
2023-02-21T20:57:13.422Z,12.77
2023-02-21T20:59:46.708Z,10.73
2023-02-21T21:02:16.353Z,12.93
2023-02-21T21:04:47.704Z,12.50
2023-02-21T21:07:19.916Z,13.00
2023-02-21T21:09:48.759Z,8.70
2023-02-21T21:12:18.518Z,12.83
2023-02-21T21:14:48.855Z,10.53
2023-02-21T21:17:20.273Z,10.63
2023-02-21T21:19:50.032Z,11.03
2023-02-21T21:22:20.240Z,12.63
2023-02-21T21:24:48.199Z,14.93
2023-02-21T21:27:16.201Z,11.50
2023-02-21T21:29:53.895Z,12.60
2023-02-21T21:32:28.092Z,10.30
2023-02-21T21:35:13.767Z,12.03
2023-02-21T21:37:43.919Z,13.17
2023-02-21T21:40:18.263Z,9.97
2023-02-21T21:42:49.097Z,8.37
2023-02-21T21:45:20.163Z,9.70
2023-02-21T21:47:51.201Z,11.83
2023-02-21T21:50:26.117Z,11.40
2023-02-21T21:52:59.018Z,12.47
2023-02-21T21:55:29.983Z,13.50
2023-02-21T21:58:01.723Z,9.93
2023-02-21T22:00:31.712Z,13.00
2023-02-21T22:03:02.342Z,11.20
2023-02-21T22:05:32.202Z,10.70
2023-02-21T22:08:01.022Z,13.43
2023-02-21T22:10:30.260Z,16.67
2023-02-21T22:13:16.122Z,12.57
2023-02-21T22:15:48.029Z,14.43
2023-02-21T22:18:20.296Z,14.27
2023-02-21T22:20:50.219Z,13.07
2023-02-21T22:23:21.187Z,9.97
2023-02-21T22:25:49.863Z,11.20
2023-02-21T22:28:18.695Z,11.70
2023-02-21T22:30:47.129Z,10.93
2023-02-21T22:33:20.362Z,12.17
2023-02-21T22:35:53.344Z,11.27
2023-02-21T22:38:22.017Z,9.77
2023-02-21T22:40:50.011Z,11.83
2023-02-21T22:43:19.976Z,9.07
2023-02-21T22:45:50.001Z,11.10
2023-02-21T22:48:21.030Z,8.57
2023-02-21T22:50:49.929Z,11.07
2023-02-21T22:53:20.317Z,13.80
2023-02-21T22:55:51.902Z,8.93
2023-02-21T22:58:21.297Z,8.53
2023-02-21T23:00:50.515Z,7.60
2023-02-21T23:03:19.909Z,10.67
2023-02-21T23:05:50.455Z,11.23
2023-02-21T23:08:20.220Z,11.90
2023-02-21T23:10:48.805Z,8.70
2023-02-21T23:13:19.233Z,7.60
2023-02-21T23:15:48.111Z,8.17
2023-02-21T23:18:20.454Z,10.50
2023-02-21T23:20:52.960Z,8.27
2023-02-21T23:23:21.533Z,9.80
2023-02-21T23:25:49.514Z,13.73
2023-02-21T23:28:18.341Z,6.87
2023-02-21T23:30:48.825Z,8.60
2023-02-21T23:33:18.764Z,7.70
2023-02-21T23:35:50.258Z,7.53
2023-02-21T23:38:22.558Z,11.33
2023-02-21T23:40:56.010Z,8.87
2023-02-21T23:43:26.180Z,10.27
2023-02-21T23:45:54.788Z,9.27
2023-02-21T23:48:23.304Z,13.53
2023-02-21T23:50:57.602Z,6.73
2023-02-21T23:53:27.268Z,8.27
2023-02-21T23:56:00.395Z,10.57
2023-02-21T23:58:31.474Z,9.53
